sensor_id;sensor_type;location;lat;lon;timestamp;temperature;humidity
17697;DHT22;8967;47.984;7.842;2023-04-04T00:00:56;3.30;93.90
17697;DHT22;8967;47.984;7.842;2023-04-04T00:03:23;3.30;94.10
17697;DHT22;8967;47.984;7.842;2023-04-04T00:05:51;3.30;94.10
17697;DHT22;8967;47.984;7.842;2023-04-04T00:08:18;3.30;94.30
17697;DHT22;8967;47.984;7.842;2023-04-04T00:10:45;3.30;94.40
17697;DHT22;8967;47.984;7.842;2023-04-04T00:13:12;3.30;94.40
17697;DHT22;8967;47.984;7.842;2023-04-04T00:15:39;3.20;94.40
17697;DHT22;8967;47.984;7.842;2023-04-04T00:18:06;3.20;94.40
17697;DHT22;8967;47.984;7.842;2023-04-04T00:20:41;3.10;94.60
17697;DHT22;8967;47.984;7.842;2023-04-04T00:23:09;3.10;94.80
17697;DHT22;8967;47.984;7.842;2023-04-04T00:25:41;3.00;94.90
17697;DHT22;8967;47.984;7.842;2023-04-04T00:28:08;3.00;95.30
17697;DHT22;8967;47.984;7.842;2023-04-04T00:30:35;2.90;95.30
17697;DHT22;8967;47.984;7.842;2023-04-04T00:33:02;2.90;95.60
17697;DHT22;8967;47.984;7.842;2023-04-04T00:35:30;2.90;95.80
17697;DHT22;8967;47.984;7.842;2023-04-04T00:37:59;2.90;95.70
17697;DHT22;8967;47.984;7.842;2023-04-04T00:40:33;2.90;96.00
17697;DHT22;8967;47.984;7.842;2023-04-04T00:43:02;2.80;96.00
17697;DHT22;8967;47.984;7.842;2023-04-04T00:45:35;2.80;96.30
17697;DHT22;8967;47.984;7.842;2023-04-04T00:48:02;2.80;96.40
17697;DHT22;8967;47.984;7.842;2023-04-04T00:50:29;2.70;96.20
17697;DHT22;8967;47.984;7.842;2023-04-04T00:52:57;2.80;96.60
17697;DHT22;8967;47.984;7.842;2023-04-04T00:55:27;2.70;96.70
17697;DHT22;8967;47.984;7.842;2023-04-04T00:57:55;2.70;96.70
17697;DHT22;8967;47.984;7.842;2023-04-04T01:00:23;2.70;96.80
17697;DHT22;8967;47.984;7.842;2023-04-04T01:02:55;2.70;96.90
17697;DHT22;8967;47.984;7.842;2023-04-04T01:05:22;2.70;97.10
17697;DHT22;8967;47.984;7.842;2023-04-04T01:07:49;2.70;96.90
17697;DHT22;8967;47.984;7.842;2023-04-04T01:10:17;2.70;96.90
17697;DHT22;8967;47.984;7.842;2023-04-04T01:12:44;2.60;97.00
17697;DHT22;8967;47.984;7.842;2023-04-04T01:15:13;2.60;97.30
17697;DHT22;8967;47.984;7.842;2023-04-04T01:17:43;2.70;97.30
17697;DHT22;8967;47.984;7.842;2023-04-04T01:20:14;2.60;97.40
17697;DHT22;8967;47.984;7.842;2023-04-04T01:22:46;2.60;97.60
17697;DHT22;8967;47.984;7.842;2023-04-04T01:25:25;2.60;97.60
17697;DHT22;8967;47.984;7.842;2023-04-04T01:27:56;2.60;97.50
17697;DHT22;8967;47.984;7.842;2023-04-04T01:30:25;2.60;97.70
17697;DHT22;8967;47.984;7.842;2023-04-04T01:33:00;2.60;97.60
17697;DHT22;8967;47.984;7.842;2023-04-04T01:35:34;2.50;97.60
17697;DHT22;8967;47.984;7.842;2023-04-04T01:38:12;2.50;97.70
17697;DHT22;8967;47.984;7.842;2023-04-04T01:40:48;2.60;96.70
17697;DHT22;8967;47.984;7.842;2023-04-04T01:43:20;2.60;96.20
17697;DHT22;8967;47.984;7.842;2023-04-04T01:45:59;2.70;95.80
17697;DHT22;8967;47.984;7.842;2023-04-04T01:48:27;2.70;95.40
17697;DHT22;8967;47.984;7.842;2023-04-04T01:50:56;2.80;94.80
17697;DHT22;8967;47.984;7.842;2023-04-04T01:53:27;2.90;93.60
17697;DHT22;8967;47.984;7.842;2023-04-04T01:55:55;3.00;92.90
17697;DHT22;8967;47.984;7.842;2023-04-04T01:58:25;3.00;92.00
17697;DHT22;8967;47.984;7.842;2023-04-04T02:00:52;3.10;92.10
17697;DHT22;8967;47.984;7.842;2023-04-04T02:03:18;3.10;91.60
17697;DHT22;8967;47.984;7.842;2023-04-04T02:05:48;3.20;90.80
17697;DHT22;8967;47.984;7.842;2023-04-04T02:08:20;3.20;90.60
17697;DHT22;8967;47.984;7.842;2023-04-04T02:10:58;3.30;90.20
17697;DHT22;8967;47.984;7.842;2023-04-04T02:13:25;3.30;89.40
17697;DHT22;8967;47.984;7.842;2023-04-04T02:15:54;3.40;89.20
17697;DHT22;8967;47.984;7.842;2023-04-04T02:18:21;3.40;88.50
17697;DHT22;8967;47.984;7.842;2023-04-04T02:20:54;3.40;87.90
17697;DHT22;8967;47.984;7.842;2023-04-04T02:23:23;3.50;86.70
17697;DHT22;8967;47.984;7.842;2023-04-04T02:25:50;3.50;85.90
17697;DHT22;8967;47.984;7.842;2023-04-04T02:28:19;3.50;86.10
17697;DHT22;8967;47.984;7.842;2023-04-04T02:30:47;3.50;85.30
17697;DHT22;8967;47.984;7.842;2023-04-04T02:33:13;3.50;85.20
17697;DHT22;8967;47.984;7.842;2023-04-04T02:35:41;3.60;85.20
17697;DHT22;8967;47.984;7.842;2023-04-04T02:38:13;3.50;84.40
17697;DHT22;8967;47.984;7.842;2023-04-04T02:40:48;3.50;84.00
17697;DHT22;8967;47.984;7.842;2023-04-04T02:43:15;3.50;84.20
17697;DHT22;8967;47.984;7.842;2023-04-04T02:45:48;3.50;84.10
17697;DHT22;8967;47.984;7.842;2023-04-04T02:48:34;3.50;84.20
17697;DHT22;8967;47.984;7.842;2023-04-04T02:51:02;3.60;83.80
17697;DHT22;8967;47.984;7.842;2023-04-04T02:53:30;3.60;83.50
17697;DHT22;8967;47.984;7.842;2023-04-04T02:56:02;3.60;83.80
17697;DHT22;8967;47.984;7.842;2023-04-04T02:58:30;3.60;83.70
17697;DHT22;8967;47.984;7.842;2023-04-04T03:00:58;3.50;83.60
17697;DHT22;8967;47.984;7.842;2023-04-04T03:03:29;3.50;84.80
17697;DHT22;8967;47.984;7.842;2023-04-04T03:05:59;3.50;84.20
17697;DHT22;8967;47.984;7.842;2023-04-04T03:08:28;3.50;84.00
17697;DHT22;8967;47.984;7.842;2023-04-04T03:10:57;3.50;84.50
17697;DHT22;8967;47.984;7.842;2023-04-04T03:13:27;3.40;84.60
17697;DHT22;8967;47.984;7.842;2023-04-04T03:15:59;3.40;84.90
17697;DHT22;8967;47.984;7.842;2023-04-04T03:18:33;3.40;84.80
17697;DHT22;8967;47.984;7.842;2023-04-04T03:21:00;3.40;84.50
17697;DHT22;8967;47.984;7.842;2023-04-04T03:23:27;3.40;84.10
17697;DHT22;8967;47.984;7.842;2023-04-04T03:25:57;3.40;83.10
17697;DHT22;8967;47.984;7.842;2023-04-04T03:28:24;3.40;83.40
17697;DHT22;8967;47.984;7.842;2023-04-04T03:30:53;3.30;84.00
17697;DHT22;8967;47.984;7.842;2023-04-04T03:33:26;3.30;84.60
17697;DHT22;8967;47.984;7.842;2023-04-04T03:35:52;3.30;84.60
17697;DHT22;8967;47.984;7.842;2023-04-04T03:38:19;3.30;84.40
17697;DHT22;8967;47.984;7.842;2023-04-04T03:40:46;3.30;84.50
17697;DHT22;8967;47.984;7.842;2023-04-04T03:43:13;3.30;84.90
17697;DHT22;8967;47.984;7.842;2023-04-04T03:45:46;3.30;85.10
17697;DHT22;8967;47.984;7.842;2023-04-04T03:48:13;3.20;85.20
17697;DHT22;8967;47.984;7.842;2023-04-04T03:50:44;3.20;85.70
17697;DHT22;8967;47.984;7.842;2023-04-04T03:53:11;3.10;86.10
17697;DHT22;8967;47.984;7.842;2023-04-04T03:55:39;3.10;86.30
17697;DHT22;8967;47.984;7.842;2023-04-04T03:58:09;3.10;86.90
17697;DHT22;8967;47.984;7.842;2023-04-04T04:00:36;3.10;87.00
17697;DHT22;8967;47.984;7.842;2023-04-04T04:03:03;3.00;87.30
17697;DHT22;8967;47.984;7.842;2023-04-04T04:05:30;3.00;87.50
17697;DHT22;8967;47.984;7.842;2023-04-04T04:07:58;3.00;87.70
17697;DHT22;8967;47.984;7.842;2023-04-04T04:10:27;2.90;88.40
17697;DHT22;8967;47.984;7.842;2023-04-04T04:12:54;2.90;89.20
17697;DHT22;8967;47.984;7.842;2023-04-04T04:15:21;2.90;90.00
17697;DHT22;8967;47.984;7.842;2023-04-04T04:17:49;2.80;90.20
17697;DHT22;8967;47.984;7.842;2023-04-04T04:20:16;2.80;90.10
17697;DHT22;8967;47.984;7.842;2023-04-04T04:22:47;2.70;90.30
17697;DHT22;8967;47.984;7.842;2023-04-04T04:25:16;2.70;90.60
17697;DHT22;8967;47.984;7.842;2023-04-04T04:27:54;2.70;90.70
17697;DHT22;8967;47.984;7.842;2023-04-04T04:30:27;2.60;90.80
17697;DHT22;8967;47.984;7.842;2023-04-04T04:32:54;2.60;90.80
17697;DHT22;8967;47.984;7.842;2023-04-04T04:35:29;2.50;91.00
17697;DHT22;8967;47.984;7.842;2023-04-04T04:37:57;2.40;91.40
17697;DHT22;8967;47.984;7.842;2023-04-04T04:40:26;2.40;91.30
17697;DHT22;8967;47.984;7.842;2023-04-04T04:42:59;2.30;91.40
17697;DHT22;8967;47.984;7.842;2023-04-04T04:45:26;2.30;91.60
17697;DHT22;8967;47.984;7.842;2023-04-04T04:48:04;2.30;91.90
17697;DHT22;8967;47.984;7.842;2023-04-04T04:50:37;2.30;92.20
17697;DHT22;8967;47.984;7.842;2023-04-04T04:53:09;2.30;92.20
17697;DHT22;8967;47.984;7.842;2023-04-04T04:55:37;2.30;92.40
17697;DHT22;8967;47.984;7.842;2023-04-04T04:58:09;2.30;92.60
17697;DHT22;8967;47.984;7.842;2023-04-04T05:00:39;2.30;92.90
17697;DHT22;8967;47.984;7.842;2023-04-04T05:03:06;2.30;93.20
17697;DHT22;8967;47.984;7.842;2023-04-04T05:05:38;2.20;92.90
17697;DHT22;8967;47.984;7.842;2023-04-04T05:08:11;2.20;93.00
17697;DHT22;8967;47.984;7.842;2023-04-04T05:10:48;2.20;92.90
17697;DHT22;8967;47.984;7.842;2023-04-04T05:13:18;2.10;92.70
17697;DHT22;8967;47.984;7.842;2023-04-04T05:15:46;2.10;92.80
17697;DHT22;8967;47.984;7.842;2023-04-04T05:18:14;2.00;93.00
17697;DHT22;8967;47.984;7.842;2023-04-04T05:20:42;2.00;93.10
17697;DHT22;8967;47.984;7.842;2023-04-04T05:23:12;2.00;93.20
17697;DHT22;8967;47.984;7.842;2023-04-04T05:25:41;1.90;93.30
17697;DHT22;8967;47.984;7.842;2023-04-04T05:28:10;1.90;93.40
17697;DHT22;8967;47.984;7.842;2023-04-04T05:30:37;1.80;93.30
17697;DHT22;8967;47.984;7.842;2023-04-04T05:33:20;1.80;93.50
17697;DHT22;8967;47.984;7.842;2023-04-04T05:35:58;1.80;93.60
17697;DHT22;8967;47.984;7.842;2023-04-04T05:38:29;1.80;93.60
17697;DHT22;8967;47.984;7.842;2023-04-04T05:40:57;1.80;93.60
17697;DHT22;8967;47.984;7.842;2023-04-04T05:43:26;1.90;93.80
17697;DHT22;8967;47.984;7.842;2023-04-04T05:46:04;1.90;93.90
17697;DHT22;8967;47.984;7.842;2023-04-04T05:48:38;2.00;93.90
17697;DHT22;8967;47.984;7.842;2023-04-04T05:51:08;2.00;93.30
17697;DHT22;8967;47.984;7.842;2023-04-04T05:53:55;2.10;93.20
17697;DHT22;8967;47.984;7.842;2023-04-04T05:56:27;2.10;93.20
17697;DHT22;8967;47.984;7.842;2023-04-04T05:58:58;2.10;93.10
17697;DHT22;8967;47.984;7.842;2023-04-04T06:01:31;2.20;93.00
17697;DHT22;8967;47.984;7.842;2023-04-04T06:04:01;2.20;92.60
17697;DHT22;8967;47.984;7.842;2023-04-04T06:06:28;2.30;92.40
17697;DHT22;8967;47.984;7.842;2023-04-04T06:08:57;2.30;92.30
17697;DHT22;8967;47.984;7.842;2023-04-04T06:11:24;2.40;92.00
17697;DHT22;8967;47.984;7.842;2023-04-04T06:14:00;2.40;91.90
17697;DHT22;8967;47.984;7.842;2023-04-04T06:16:28;2.40;91.80
17697;DHT22;8967;47.984;7.842;2023-04-04T06:18:57;2.50;91.40
17697;DHT22;8967;47.984;7.842;2023-04-04T06:21:24;2.50;91.00
17697;DHT22;8967;47.984;7.842;2023-04-04T06:23:53;2.50;91.00
17697;DHT22;8967;47.984;7.842;2023-04-04T06:26:26;2.60;90.70
17697;DHT22;8967;47.984;7.842;2023-04-04T06:28:53;2.60;90.60
17697;DHT22;8967;47.984;7.842;2023-04-04T06:31:33;2.60;90.40
17697;DHT22;8967;47.984;7.842;2023-04-04T06:34:07;2.70;90.30
17697;DHT22;8967;47.984;7.842;2023-04-04T06:36:46;2.70;90.30
17697;DHT22;8967;47.984;7.842;2023-04-04T06:39:16;2.70;90.40
17697;DHT22;8967;47.984;7.842;2023-04-04T06:41:53;2.80;90.50
17697;DHT22;8967;47.984;7.842;2023-04-04T06:44:25;2.80;90.30
17697;DHT22;8967;47.984;7.842;2023-04-04T06:46:55;2.80;90.10
17697;DHT22;8967;47.984;7.842;2023-04-04T06:49:23;2.90;90.20
17697;DHT22;8967;47.984;7.842;2023-04-04T06:51:50;2.90;89.60
17697;DHT22;8967;47.984;7.842;2023-04-04T06:54:22;2.90;89.30
17697;DHT22;8967;47.984;7.842;2023-04-04T06:56:49;3.00;89.10
17697;DHT22;8967;47.984;7.842;2023-04-04T06:59:16;3.00;88.40
17697;DHT22;8967;47.984;7.842;2023-04-04T07:01:43;3.00;88.30
17697;DHT22;8967;47.984;7.842;2023-04-04T07:04:14;3.10;88.10
17697;DHT22;8967;47.984;7.842;2023-04-04T07:06:43;3.10;87.90
17697;DHT22;8967;47.984;7.842;2023-04-04T07:09:16;3.20;87.90
17697;DHT22;8967;47.984;7.842;2023-04-04T07:11:42;3.20;86.90
17697;DHT22;8967;47.984;7.842;2023-04-04T07:14:14;3.20;86.10
17697;DHT22;8967;47.984;7.842;2023-04-04T07:16:41;3.30;84.60
17697;DHT22;8967;47.984;7.842;2023-04-04T07:19:08;3.40;83.90
17697;DHT22;8967;47.984;7.842;2023-04-04T07:21:36;3.40;83.30
17697;DHT22;8967;47.984;7.842;2023-04-04T07:24:04;3.40;83.20
17697;DHT22;8967;47.984;7.842;2023-04-04T07:26:32;3.50;83.10
17697;DHT22;8967;47.984;7.842;2023-04-04T07:29:05;3.60;81.90
17697;DHT22;8967;47.984;7.842;2023-04-04T07:31:34;3.70;82.30
17697;DHT22;8967;47.984;7.842;2023-04-04T07:34:07;3.70;81.70
17697;DHT22;8967;47.984;7.842;2023-04-04T07:36:33;3.80;81.00
17697;DHT22;8967;47.984;7.842;2023-04-04T07:39:02;3.90;80.90
17697;DHT22;8967;47.984;7.842;2023-04-04T07:41:30;3.90;81.20
17697;DHT22;8967;47.984;7.842;2023-04-04T07:43:58;3.90;81.30
17697;DHT22;8967;47.984;7.842;2023-04-04T07:46:24;4.00;81.20
17697;DHT22;8967;47.984;7.842;2023-04-04T07:48:54;4.00;80.90
17697;DHT22;8967;47.984;7.842;2023-04-04T07:51:21;4.00;80.90
17697;DHT22;8967;47.984;7.842;2023-04-04T07:53:56;4.00;81.20
17697;DHT22;8967;47.984;7.842;2023-04-04T07:56:24;4.10;81.30
17697;DHT22;8967;47.984;7.842;2023-04-04T07:58:51;4.10;81.30
17697;DHT22;8967;47.984;7.842;2023-04-04T08:01:20;4.20;81.70
17697;DHT22;8967;47.984;7.842;2023-04-04T08:03:47;4.20;82.20
17697;DHT22;8967;47.984;7.842;2023-04-04T08:06:14;4.30;82.20
17697;DHT22;8967;47.984;7.842;2023-04-04T08:08:41;4.30;82.30
17697;DHT22;8967;47.984;7.842;2023-04-04T08:11:09;4.40;82.50
17697;DHT22;8967;47.984;7.842;2023-04-04T08:13:40;4.40;82.70
17697;DHT22;8967;47.984;7.842;2023-04-04T08:16:07;4.50;82.20
17697;DHT22;8967;47.984;7.842;2023-04-04T08:18:34;4.50;82.20
17697;DHT22;8967;47.984;7.842;2023-04-04T08:21:01;4.50;80.90
17697;DHT22;8967;47.984;7.842;2023-04-04T08:23:28;4.60;80.90
17697;DHT22;8967;47.984;7.842;2023-04-04T08:25:55;4.70;80.10
17697;DHT22;8967;47.984;7.842;2023-04-04T08:28:24;4.80;78.00
17697;DHT22;8967;47.984;7.842;2023-04-04T08:30:53;4.90;77.40
17697;DHT22;8967;47.984;7.842;2023-04-04T08:33:22;4.90;77.40
17697;DHT22;8967;47.984;7.842;2023-04-04T08:35:49;5.00;77.60
17697;DHT22;8967;47.984;7.842;2023-04-04T08:38:16;5.10;77.70
17697;DHT22;8967;47.984;7.842;2023-04-04T08:40:45;5.10;78.40
17697;DHT22;8967;47.984;7.842;2023-04-04T08:43:15;5.10;76.50
17697;DHT22;8967;47.984;7.842;2023-04-04T08:45:46;5.20;76.50
17697;DHT22;8967;47.984;7.842;2023-04-04T08:48:29;5.30;76.60
17697;DHT22;8967;47.984;7.842;2023-04-04T08:50:58;5.30;76.60
17697;DHT22;8967;47.984;7.842;2023-04-04T08:53:28;5.50;77.10
17697;DHT22;8967;47.984;7.842;2023-04-04T08:55:55;5.50;76.80
17697;DHT22;8967;47.984;7.842;2023-04-04T08:58:25;5.60;76.50
17697;DHT22;8967;47.984;7.842;2023-04-04T09:00:52;5.60;76.00
17697;DHT22;8967;47.984;7.842;2023-04-04T09:03:23;5.70;75.60
17697;DHT22;8967;47.984;7.842;2023-04-04T09:05:51;5.70;75.40
17697;DHT22;8967;47.984;7.842;2023-04-04T09:08:18;5.80;75.10
17697;DHT22;8967;47.984;7.842;2023-04-04T09:10:46;5.90;75.00
17697;DHT22;8967;47.984;7.842;2023-04-04T09:13:13;5.90;75.00
17697;DHT22;8967;47.984;7.842;2023-04-04T09:15:46;6.00;74.10
17697;DHT22;8967;47.984;7.842;2023-04-04T09:18:13;6.10;72.90
17697;DHT22;8967;47.984;7.842;2023-04-04T09:20:48;6.20;71.10
17697;DHT22;8967;47.984;7.842;2023-04-04T09:23:16;6.20;71.20
17697;DHT22;8967;47.984;7.842;2023-04-04T09:25:45;6.30;71.40
17697;DHT22;8967;47.984;7.842;2023-04-04T09:28:22;6.40;69.40
17697;DHT22;8967;47.984;7.842;2023-04-04T09:30:49;6.50;69.20
17697;DHT22;8967;47.984;7.842;2023-04-04T09:33:17;6.60;68.10
17697;DHT22;8967;47.984;7.842;2023-04-04T09:35:51;6.70;67.70
17697;DHT22;8967;47.984;7.842;2023-04-04T09:38:22;6.70;67.30
17697;DHT22;8967;47.984;7.842;2023-04-04T09:40:53;6.80;67.30
17697;DHT22;8967;47.984;7.842;2023-04-04T09:43:29;6.80;66.50
17697;DHT22;8967;47.984;7.842;2023-04-04T09:45:58;6.90;66.60
17697;DHT22;8967;47.984;7.842;2023-04-04T09:48:27;6.90;66.70
17697;DHT22;8967;47.984;7.842;2023-04-04T09:50:58;6.90;66.90
17697;DHT22;8967;47.984;7.842;2023-04-04T09:53:27;7.00;67.20
17697;DHT22;8967;47.984;7.842;2023-04-04T09:55:55;7.00;66.60
17697;DHT22;8967;47.984;7.842;2023-04-04T09:58:24;7.00;66.60
17697;DHT22;8967;47.984;7.842;2023-04-04T10:00:55;7.00;66.50
17697;DHT22;8967;47.984;7.842;2023-04-04T10:03:23;7.00;66.70
17697;DHT22;8967;47.984;7.842;2023-04-04T10:05:54;7.00;67.20
17697;DHT22;8967;47.984;7.842;2023-04-04T10:08:23;7.10;66.50
17697;DHT22;8967;47.984;7.842;2023-04-04T10:10:55;7.20;65.60
17697;DHT22;8967;47.984;7.842;2023-04-04T10:13:23;7.30;66.20
17697;DHT22;8967;47.984;7.842;2023-04-04T10:15:51;7.30;65.80
17697;DHT22;8967;47.984;7.842;2023-04-04T10:18:19;7.30;65.50
17697;DHT22;8967;47.984;7.842;2023-04-04T10:20:48;7.40;66.20
17697;DHT22;8967;47.984;7.842;2023-04-04T10:23:15;7.40;65.40
17697;DHT22;8967;47.984;7.842;2023-04-04T10:25:44;7.40;64.60
17697;DHT22;8967;47.984;7.842;2023-04-04T10:28:11;7.40;64.90
17697;DHT22;8967;47.984;7.842;2023-04-04T10:30:42;7.40;65.10
17697;DHT22;8967;47.984;7.842;2023-04-04T10:33:19;7.40;64.90
17697;DHT22;8967;47.984;7.842;2023-04-04T10:35:53;7.50;65.00
17697;DHT22;8967;47.984;7.842;2023-04-04T10:38:27;7.60;64.50
17697;DHT22;8967;47.984;7.842;2023-04-04T10:40:58;7.60;64.50
17697;DHT22;8967;47.984;7.842;2023-04-04T10:43:30;7.60;64.20
17697;DHT22;8967;47.984;7.842;2023-04-04T10:46:10;7.70;64.70
17697;DHT22;8967;47.984;7.842;2023-04-04T10:48:49;7.70;64.80
17697;DHT22;8967;47.984;7.842;2023-04-04T10:51:19;7.70;65.00
17697;DHT22;8967;47.984;7.842;2023-04-04T10:53:49;7.70;65.50
17697;DHT22;8967;47.984;7.842;2023-04-04T10:56:18;7.70;65.30
17697;DHT22;8967;47.984;7.842;2023-04-04T10:58:48;7.80;65.50
17697;DHT22;8967;47.984;7.842;2023-04-04T11:01:15;7.80;66.30
17697;DHT22;8967;47.984;7.842;2023-04-04T11:04:15;7.90;66.40
17697;DHT22;8967;47.984;7.842;2023-04-04T11:07:11;8.00;66.00
17697;DHT22;8967;47.984;7.842;2023-04-04T11:09:54;8.00;64.60
17697;DHT22;8967;47.984;7.842;2023-04-04T11:12:26;8.00;64.40
17697;DHT22;8967;47.984;7.842;2023-04-04T11:14:54;8.10;64.10
17697;DHT22;8967;47.984;7.842;2023-04-04T11:20:30;8.20;63.40
17697;DHT22;8967;47.984;7.842;2023-04-04T11:23:05;8.30;63.00
17697;DHT22;8967;47.984;7.842;2023-04-04T11:25:43;8.30;62.60
17697;DHT22;8967;47.984;7.842;2023-04-04T11:28:44;8.30;61.80
17697;DHT22;8967;47.984;7.842;2023-04-04T11:31:28;8.50;62.10
17697;DHT22;8967;47.984;7.842;2023-04-04T11:34:02;8.50;62.40
17697;DHT22;8967;47.984;7.842;2023-04-04T11:36:51;8.50;61.90
17697;DHT22;8967;47.984;7.842;2023-04-04T11:39:27;8.60;62.40
17697;DHT22;8967;47.984;7.842;2023-04-04T11:42:00;8.70;61.90
17697;DHT22;8967;47.984;7.842;2023-04-04T11:44:41;8.80;61.20
17697;DHT22;8967;47.984;7.842;2023-04-04T11:47:11;8.80;60.60
17697;DHT22;8967;47.984;7.842;2023-04-04T11:49:40;8.70;60.80
17697;DHT22;8967;47.984;7.842;2023-04-04T11:52:08;8.80;62.00
17697;DHT22;8967;47.984;7.842;2023-04-04T11:54:36;8.90;61.80
17697;DHT22;8967;47.984;7.842;2023-04-04T11:57:06;8.90;61.30
17697;DHT22;8967;47.984;7.842;2023-04-04T11:59:40;9.00;60.90
17697;DHT22;8967;47.984;7.842;2023-04-04T12:02:10;9.00;60.70
17697;DHT22;8967;47.984;7.842;2023-04-04T12:04:39;8.90;60.60
17697;DHT22;8967;47.984;7.842;2023-04-04T12:07:09;9.00;60.00
17697;DHT22;8967;47.984;7.842;2023-04-04T12:09:38;9.00;59.30
17697;DHT22;8967;47.984;7.842;2023-04-04T12:12:07;9.00;59.30
17697;DHT22;8967;47.984;7.842;2023-04-04T12:14:33;9.00;58.60
17697;DHT22;8967;47.984;7.842;2023-04-04T12:17:02;9.00;58.80
17697;DHT22;8967;47.984;7.842;2023-04-04T12:19:29;9.10;59.30
17697;DHT22;8967;47.984;7.842;2023-04-04T12:21:56;9.10;57.90
17697;DHT22;8967;47.984;7.842;2023-04-04T12:24:32;9.10;57.30
17697;DHT22;8967;47.984;7.842;2023-04-04T12:26:59;9.10;57.50
17697;DHT22;8967;47.984;7.842;2023-04-04T12:29:28;9.20;57.50
17697;DHT22;8967;47.984;7.842;2023-04-04T12:32:05;9.20;57.40
17697;DHT22;8967;47.984;7.842;2023-04-04T12:34:41;9.30;56.90
17697;DHT22;8967;47.984;7.842;2023-04-04T12:37:09;9.40;56.80
17697;DHT22;8967;47.984;7.842;2023-04-04T12:39:41;9.50;56.00
17697;DHT22;8967;47.984;7.842;2023-04-04T12:42:19;9.50;55.90
17697;DHT22;8967;47.984;7.842;2023-04-04T12:44:49;9.50;54.90
17697;DHT22;8967;47.984;7.842;2023-04-04T12:47:17;9.50;54.30
17697;DHT22;8967;47.984;7.842;2023-04-04T12:49:47;9.40;54.30
17697;DHT22;8967;47.984;7.842;2023-04-04T12:52:29;9.40;54.60
17697;DHT22;8967;47.984;7.842;2023-04-04T12:55:07;9.50;54.90
17697;DHT22;8967;47.984;7.842;2023-04-04T12:57:38;9.50;55.00
17697;DHT22;8967;47.984;7.842;2023-04-04T13:00:06;9.50;54.70
17697;DHT22;8967;47.984;7.842;2023-04-04T13:02:48;9.50;55.00
17697;DHT22;8967;47.984;7.842;2023-04-04T13:05:18;9.50;54.60
17697;DHT22;8967;47.984;7.842;2023-04-04T13:07:49;9.50;54.10
17697;DHT22;8967;47.984;7.842;2023-04-04T13:10:19;9.60;54.20
17697;DHT22;8967;47.984;7.842;2023-04-04T13:13:07;9.60;54.50
17697;DHT22;8967;47.984;7.842;2023-04-04T13:15:50;9.70;54.70
17697;DHT22;8967;47.984;7.842;2023-04-04T13:18:20;9.80;54.40
17697;DHT22;8967;47.984;7.842;2023-04-04T13:20:48;9.80;54.60
17697;DHT22;8967;47.984;7.842;2023-04-04T13:23:22;9.80;54.80
17697;DHT22;8967;47.984;7.842;2023-04-04T13:25:49;9.80;54.90
17697;DHT22;8967;47.984;7.842;2023-04-04T13:28:21;9.90;54.80
17697;DHT22;8967;47.984;7.842;2023-04-04T13:30:50;9.80;54.90
17697;DHT22;8967;47.984;7.842;2023-04-04T13:33:18;9.90;55.70
17697;DHT22;8967;47.984;7.842;2023-04-04T13:35:49;9.90;56.30
17697;DHT22;8967;47.984;7.842;2023-04-04T13:38:16;9.90;56.30
17697;DHT22;8967;47.984;7.842;2023-04-04T13:40:43;10.00;56.60
17697;DHT22;8967;47.984;7.842;2023-04-04T13:43:13;10.00;56.30
17697;DHT22;8967;47.984;7.842;2023-04-04T13:45:42;10.00;56.30
17697;DHT22;8967;47.984;7.842;2023-04-04T13:48:13;10.00;55.50
17697;DHT22;8967;47.984;7.842;2023-04-04T13:50:43;10.00;55.80
17697;DHT22;8967;47.984;7.842;2023-04-04T13:53:15;10.00;56.10
17697;DHT22;8967;47.984;7.842;2023-04-04T13:55:43;10.00;56.30
17697;DHT22;8967;47.984;7.842;2023-04-04T13:58:15;10.00;56.20
17697;DHT22;8967;47.984;7.842;2023-04-04T14:00:51;10.10;56.00
17697;DHT22;8967;47.984;7.842;2023-04-04T14:03:18;10.10;56.00
17697;DHT22;8967;47.984;7.842;2023-04-04T14:05:46;10.10;56.20
17697;DHT22;8967;47.984;7.842;2023-04-04T14:08:13;10.10;56.20
17697;DHT22;8967;47.984;7.842;2023-04-04T14:10:40;10.10;56.40
17697;DHT22;8967;47.984;7.842;2023-04-04T14:13:07;10.00;57.00
17697;DHT22;8967;47.984;7.842;2023-04-04T14:15:36;10.10;56.30
17697;DHT22;8967;47.984;7.842;2023-04-04T14:18:04;10.10;56.40
17697;DHT22;8967;47.984;7.842;2023-04-04T14:20:38;10.00;56.50
17697;DHT22;8967;47.984;7.842;2023-04-04T14:23:11;10.00;56.60
17697;DHT22;8967;47.984;7.842;2023-04-04T14:25:38;10.00;56.80
17697;DHT22;8967;47.984;7.842;2023-04-04T14:28:06;10.00;56.50
17697;DHT22;8967;47.984;7.842;2023-04-04T14:30:33;10.00;56.60
17697;DHT22;8967;47.984;7.842;2023-04-04T14:33:03;10.00;56.40
17697;DHT22;8967;47.984;7.842;2023-04-04T14:35:30;10.10;56.40
17697;DHT22;8967;47.984;7.842;2023-04-04T14:37:56;10.10;56.50
17697;DHT22;8967;47.984;7.842;2023-04-04T14:40:26;10.10;56.50
17697;DHT22;8967;47.984;7.842;2023-04-04T14:42:53;10.00;56.90
17697;DHT22;8967;47.984;7.842;2023-04-04T14:45:20;10.10;56.70
17697;DHT22;8967;47.984;7.842;2023-04-04T14:47:47;10.10;56.20
17697;DHT22;8967;47.984;7.842;2023-04-04T14:50:14;10.10;55.60
17697;DHT22;8967;47.984;7.842;2023-04-04T14:52:43;10.10;55.60
17697;DHT22;8967;47.984;7.842;2023-04-04T14:55:12;10.10;55.70
17697;DHT22;8967;47.984;7.842;2023-04-04T14:57:41;10.10;55.80
17697;DHT22;8967;47.984;7.842;2023-04-04T15:00:10;10.10;55.60
17697;DHT22;8967;47.984;7.842;2023-04-04T15:02:37;10.20;55.80
17697;DHT22;8967;47.984;7.842;2023-04-04T15:05:05;10.10;55.70
17697;DHT22;8967;47.984;7.842;2023-04-04T15:07:32;10.10;55.80
17697;DHT22;8967;47.984;7.842;2023-04-04T15:09:59;10.10;55.80
17697;DHT22;8967;47.984;7.842;2023-04-04T15:12:26;10.00;55.60
17697;DHT22;8967;47.984;7.842;2023-04-04T15:14:54;10.00;55.40
17697;DHT22;8967;47.984;7.842;2023-04-04T15:17:21;10.00;55.70
17697;DHT22;8967;47.984;7.842;2023-04-04T15:19:48;10.10;56.00
17697;DHT22;8967;47.984;7.842;2023-04-04T15:22:15;10.10;55.80
17697;DHT22;8967;47.984;7.842;2023-04-04T15:24:42;10.00;55.70
17697;DHT22;8967;47.984;7.842;2023-04-04T15:27:09;10.00;56.20
17697;DHT22;8967;47.984;7.842;2023-04-04T15:29:36;10.00;55.70
17697;DHT22;8967;47.984;7.842;2023-04-04T15:32:04;10.00;55.70
17697;DHT22;8967;47.984;7.842;2023-04-04T15:34:31;10.00;55.50
17697;DHT22;8967;47.984;7.842;2023-04-04T15:37:00;10.00;56.20
17697;DHT22;8967;47.984;7.842;2023-04-04T15:39:29;10.10;55.60
17697;DHT22;8967;47.984;7.842;2023-04-04T15:41:56;10.00;55.60
17697;DHT22;8967;47.984;7.842;2023-04-04T15:44:23;10.00;55.60
17697;DHT22;8967;47.984;7.842;2023-04-04T15:46:50;10.10;55.50
17697;DHT22;8967;47.984;7.842;2023-04-04T15:49:18;10.10;55.00
17697;DHT22;8967;47.984;7.842;2023-04-04T15:51:45;10.10;55.30
17697;DHT22;8967;47.984;7.842;2023-04-04T15:54:12;10.10;55.20
17697;DHT22;8967;47.984;7.842;2023-04-04T15:56:39;10.00;55.10
17697;DHT22;8967;47.984;7.842;2023-04-04T15:59:06;10.00;55.10
17697;DHT22;8967;47.984;7.842;2023-04-04T16:01:33;10.00;55.30
17697;DHT22;8967;47.984;7.842;2023-04-04T16:04:00;10.00;55.40
17697;DHT22;8967;47.984;7.842;2023-04-04T16:06:29;9.90;55.40
17697;DHT22;8967;47.984;7.842;2023-04-04T16:08:56;9.90;55.30
17697;DHT22;8967;47.984;7.842;2023-04-04T16:11:25;10.00;55.90
17697;DHT22;8967;47.984;7.842;2023-04-04T16:13:52;9.90;54.90
17697;DHT22;8967;47.984;7.842;2023-04-04T16:16:19;9.90;55.10
17697;DHT22;8967;47.984;7.842;2023-04-04T16:18:46;9.90;55.30
17697;DHT22;8967;47.984;7.842;2023-04-04T16:21:12;9.80;55.40